Time;durP1;ratioP1;P1;durP2;ratioP2;P2;SDS_P1;SDS_P2;PMS_P1;PMS_P2;Temp;Humidity;BMP_temperature;BMP_pressure;BME280_temperature;BME280_humidity;BME280_pressure;Samples;Min_cycle;Max_cycle;Signal;HPM_P1;HPM_P2
2023/02/04 00:01:08;;;;;;;;;;;;;;;0.20;79.63;93167.78;5019155;28;19913;-48
2023/02/04 00:03:33;;;;;;;;;;;;;;;0.28;80.24;93166.09;5015869;28;19918;-48
2023/02/04 00:05:59;;;;;;;;;;;;;;;0.11;81.42;93163.31;5022714;28;19968;-48
2023/02/04 00:08:24;;;;;;;;;;;;;;;0.11;81.95;93157.16;5019053;28;20003;-47
2023/02/04 00:10:50;;;;;;;;;;;;;;;0.20;81.42;93163.09;5022389;28;19921;-47
2023/02/04 00:13:15;;;;;;;;;;;;;;;0.23;81.15;93161.38;5024368;28;19920;-47
2023/02/04 00:15:40;;;;;;;;;;;;;;;0.28;81.28;93160.66;5027339;28;19939;-46
2023/02/04 00:18:06;;;;;;;;;;;;;;;0.37;81.20;93153.03;5019666;28;20667;-47
2023/02/04 00:20:31;;;;;;;;;;;;;;;0.34;81.77;93151.31;5020498;28;19924;-47
2023/02/04 00:22:57;;;;;;;;;;;;;;;0.34;81.51;93139.69;5023977;28;19971;-46
2023/02/04 00:25:22;;;;;;;;;;;;;;;0.29;82.29;93132.25;5019239;28;19918;-47
2023/02/04 00:27:47;;;;;;;;;;;;;;;0.30;82.80;93131.03;5016347;28;20372;-47
2023/02/04 00:30:13;;;;;;;;;;;;;;;0.10;83.08;93129.28;5026893;28;19951;-47
2023/02/04 00:32:38;;;;;;;;;;;;;;;0.14;84.06;93110.75;5018788;28;19921;-47
2023/02/04 00:35:03;;;;;;;;;;;;;;;0.33;83.81;93108.31;5015659;28;19913;-48
2023/02/04 00:37:29;;;;;;;;;;;;;;;0.26;83.64;93112.25;5019440;28;19917;-47
2023/02/04 00:39:55;;;;;;;;;;;;;;;0.24;84.16;93112.00;5019199;28;20431;-48
2023/02/04 00:42:20;;;;;;;;;;;;;;;0.11;85.59;93108.31;5018500;28;19917;-48
2023/02/04 00:44:45;;;;;;;;;;;;;;;0.21;84.60;93106.84;5014483;28;19917;-48
2023/02/04 00:47:10;;;;;;;;;;;;;;;0.26;84.87;93108.84;5022517;28;20380;-48
2023/02/04 00:49:36;;;;;;;;;;;;;;;0.34;85.43;93104.41;5024754;28;19917;-47
2023/02/04 00:52:01;;;;;;;;;;;;;;;0.16;85.87;93092.00;5017461;28;20008;-48
2023/02/04 00:54:26;;;;;;;;;;;;;;;0.17;86.31;93100.91;5014043;28;20314;-46
2023/02/04 00:56:52;;;;;;;;;;;;;;;0.18;86.62;93094.22;5012350;28;20055;-47
2023/02/04 00:59:17;;;;;;;;;;;;;;;0.23;86.59;93088.81;5017105;28;19917;-48
2023/02/04 01:01:42;;;;;;;;;;;;;;;0.28;86.80;93092.78;5024571;28;20067;-47
2023/02/04 01:04:07;;;;;;;;;;;;;;;0.38;86.81;93085.88;5024718;28;19917;-46
2023/02/04 01:06:33;;;;;;;;;;;;;;;0.30;86.32;93091.06;5018577;28;20630;-47
2023/02/04 01:08:58;;;;;;;;;;;;;;;0.36;86.78;93075.53;5024176;28;19964;-47
2023/02/04 01:11:24;;;;;;;;;;;;;;;0.20;87.83;93073.50;5010860;28;19917;-47
2023/02/04 01:13:49;;;;;;;;;;;;;;;0.29;88.78;93069.81;5022940;28;19939;-48
2023/02/04 01:16:14;;;;;;;;;;;;;;;0.23;88.99;93064.41;5018416;28;19920;-47
2023/02/04 01:18:39;;;;;;;;;;;;;;;0.41;88.22;93052.31;5020558;28;19960;-48
2023/02/04 01:21:05;;;;;;;;;;;;;;;0.21;88.95;93047.13;5020142;28;20546;-48
2023/02/04 01:23:30;;;;;;;;;;;;;;;0.26;89.35;93052.53;5019121;28;19917;-47
2023/02/04 01:25:55;;;;;;;;;;;;;;;0.28;89.30;93044.63;5022043;28;20329;-47
2023/02/04 01:28:21;;;;;;;;;;;;;;;0.45;88.53;93039.97;5007090;28;19917;-47
2023/02/04 01:30:46;;;;;;;;;;;;;;;0.47;88.89;93034.06;5008407;28;19925;-47
2023/02/04 01:33:11;;;;;;;;;;;;;;;0.36;88.27;93037.50;5006318;28;19921;-48
2023/02/04 01:35:37;;;;;;;;;;;;;;;0.41;88.20;93036.75;5015442;28;20385;-48
2023/02/04 01:38:02;;;;;;;;;;;;;;;0.36;87.93;93037.50;5015978;28;19928;-48
2023/02/04 01:40:27;;;;;;;;;;;;;;;0.34;88.12;93037.25;5018168;28;20499;-48
2023/02/04 01:42:52;;;;;;;;;;;;;;;0.22;88.66;93041.19;5017370;28;19928;-48
2023/02/04 01:45:18;;;;;;;;;;;;;;;0.31;88.50;93045.63;5019986;28;19917;-47
2023/02/04 01:47:43;;;;;;;;;;;;;;;0.28;88.24;93033.06;5026537;28;20126;-47
2023/02/04 01:50:12;;;;;;;;;;;;;;;0.31;88.53;93034.78;5007171;28;19918;-47
2023/02/04 01:52:38;;;;;;;;;;;;;;;0.31;88.75;93032.06;5024121;28;20325;-47
2023/02/04 01:55:05;;;;;;;;;;;;;;;0.28;88.52;93033.06;5005659;28;19917;-47
2023/02/04 01:57:30;;;;;;;;;;;;;;;0.23;88.78;93031.06;5025535;28;20381;-49
2023/02/04 01:59:55;;;;;;;;;;;;;;;0.27;89.83;93020.69;5008559;28;19983;-47
2023/02/04 02:02:39;;;;;;;;;;;;;;;0.18;89.52;93018.22;5015323;28;19923;-47
2023/02/04 02:05:05;;;;;;;;;;;;;;;0.19;89.23;93004.19;5019329;28;20007;-47
2023/02/04 02:07:30;;;;;;;;;;;;;;;0.07;90.23;92996.50;5021215;28;20020;-47
2023/02/04 02:09:55;;;;;;;;;;;;;;;0.02;91.16;92994.53;5029092;28;19920;-47
2023/02/04 02:12:21;;;;;;;;;;;;;;;0.00;90.83;93003.19;5007609;28;19917;-47
2023/02/04 02:14:46;;;;;;;;;;;;;;;0.04;91.01;92998.25;5025762;28;19917;-47
2023/02/04 02:17:11;;;;;;;;;;;;;;;0.06;90.71;92998.50;5023107;28;20448;-48
2023/02/04 02:19:36;;;;;;;;;;;;;;;-0.04;91.06;93013.50;5022221;28;19917;-48
2023/02/04 02:22:04;;;;;;;;;;;;;;;-0.01;91.43;93007.13;5018449;28;19921;-47
2023/02/04 02:24:33;;;;;;;;;;;;;;;-0.12;91.97;92999.69;5011803;28;20011;-49
2023/02/04 02:26:59;;;;;;;;;;;;;;;-0.17;92.05;92997.72;5020726;28;19945;-49
2023/02/04 02:29:24;;;;;;;;;;;;;;;0.02;92.50;92998.00;5005108;28;20408;-48
2023/02/04 02:31:50;;;;;;;;;;;;;;;0.03;91.26;92990.56;5025229;28;19913;-48
2023/02/04 02:34:15;;;;;;;;;;;;;;;0.04;91.44;92981.97;5018917;28;19924;-48
2023/02/04 02:36:40;;;;;;;;;;;;;;;0.07;92.39;92985.66;5026055;28;19921;-47
2023/02/04 02:39:06;;;;;;;;;;;;;;;0.07;92.60;92970.09;5023015;28;19921;-48
2023/02/04 02:41:31;;;;;;;;;;;;;;;0.16;92.26;92974.53;5029572;28;20285;-47
2023/02/04 02:43:56;;;;;;;;;;;;;;;0.22;91.79;92965.19;5015433;28;19921;-46
2023/02/04 02:46:21;;;;;;;;;;;;;;;0.15;91.24;92967.66;5020802;28;19925;-47
2023/02/04 02:48:46;;;;;;;;;;;;;;;0.21;91.82;92958.28;5022148;28;19917;-47
2023/02/04 02:51:12;;;;;;;;;;;;;;;0.29;91.17;92951.09;5029163;28;20398;-47
2023/02/04 02:53:37;;;;;;;;;;;;;;;0.48;90.36;92937.75;5026718;28;19924;-47
2023/02/04 02:56:04;;;;;;;;;;;;;;;0.50;90.13;92929.84;5028881;28;19921;-48
2023/02/04 02:58:32;;;;;;;;;;;;;;;0.39;89.79;92927.88;5000534;28;20000;-48
2023/02/04 03:00:58;;;;;;;;;;;;;;;0.47;89.58;92930.84;4996098;28;20294;-47
2023/02/04 03:03:27;;;;;;;;;;;;;;;0.35;89.44;92918.50;5000420;28;19917;-48
2023/02/04 03:05:57;;;;;;;;;;;;;;;0.35;89.73;92913.09;5021887;28;19926;-48
2023/02/04 03:08:22;;;;;;;;;;;;;;;0.44;89.37;92920.97;5012204;28;20028;-48
2023/02/04 03:10:47;;;;;;;;;;;;;;;0.30;90.35;92922.00;5022534;28;20013;-47
2023/02/04 03:13:13;;;;;;;;;;;;;;;0.21;90.73;92914.84;5008133;28;20649;-48
2023/02/04 03:15:38;;;;;;;;;;;;;;;0.17;90.99;92905.47;5003628;28;20003;-48
2023/02/04 03:18:03;;;;;;;;;;;;;;;0.21;91.03;92911.38;5024231;28;20321;-48
2023/02/04 03:20:29;;;;;;;;;;;;;;;0.28;90.57;92902.75;5002649;28;19968;-47
2023/02/04 03:22:54;;;;;;;;;;;;;;;0.20;90.97;92896.31;5006379;28;20339;-48
2023/02/04 03:25:23;;;;;;;;;;;;;;;0.19;90.79;92908.44;5022651;28;20324;-47
2023/02/04 03:27:48;;;;;;;;;;;;;;;0.35;90.58;92902.22;5010634;28;19921;-47
2023/02/04 03:30:13;;;;;;;;;;;;;;;0.41;89.78;92898.25;5010147;28;19917;-48
2023/02/04 03:32:40;;;;;;;;;;;;;;;0.48;89.01;92895.03;5020847;28;20487;-48
2023/02/04 03:35:05;;;;;;;;;;;;;;;0.21;90.70;92897.81;5020109;28;19995;-47
2023/02/04 03:37:31;;;;;;;;;;;;;;;0.11;90.71;92888.47;5015712;28;20007;-46
2023/02/04 03:39:56;;;;;;;;;;;;;;;0.22;91.22;92886.44;5020803;28;20632;-47
2023/02/04 03:42:21;;;;;;;;;;;;;;;0.16;90.68;92893.13;5019621;28;19924;-47
2023/02/04 03:44:46;;;;;;;;;;;;;;;0.23;90.68;92901.50;5022345;28;19918;-47
2023/02/04 03:47:12;;;;;;;;;;;;;;;0.24;91.45;92894.13;5024460;28;20015;-47
2023/02/04 03:49:37;;;;;;;;;;;;;;;0.21;91.37;92876.84;5018114;28;19921;-47
2023/02/04 03:52:02;;;;;;;;;;;;;;;0.02;91.10;92867.75;5023604;28;19987;-47
2023/02/04 03:54:28;;;;;;;;;;;;;;;0.05;92.01;92885.72;5026070;28;19921;-47
2023/02/04 03:56:53;;;;;;;;;;;;;;;0.18;91.60;92874.38;5028068;28;19923;-47
2023/02/04 03:59:18;;;;;;;;;;;;;;;0.13;91.58;92864.28;5021760;28;19925;-47
2023/02/04 04:01:43;;;;;;;;;;;;;;;0.30;91.30;92867.69;5022929;28;20008;-47
2023/02/04 04:04:09;;;;;;;;;;;;;;;0.29;91.83;92861.53;5024802;28;19919;-48
2023/02/04 04:06:34;;;;;;;;;;;;;;;0.33;90.97;92853.09;5017367;28;19928;-47
2023/02/04 04:08:59;;;;;;;;;;;;;;;0.34;91.10;92851.88;5016244;28;20533;-47
2023/02/04 04:11:25;;;;;;;;;;;;;;;0.35;91.02;92840.53;5026101;28;19924;-47
2023/02/04 04:13:50;;;;;;;;;;;;;;;0.29;90.95;92847.19;5017744;28;20290;-47
2023/02/04 04:16:15;;;;;;;;;;;;;;;0.33;91.09;92824.00;5011952;28;20064;-47
2023/02/04 04:18:41;;;;;;;;;;;;;;;0.35;90.39;92826.94;5014888;28;19924;-46
2023/02/04 04:21:06;;;;;;;;;;;;;;;0.58;89.90;92824.91;5019190;28;19983;-48
2023/02/04 04:23:31;;;;;;;;;;;;;;;0.26;90.09;92823.78;5018085;28;20468;-46
2023/02/04 04:25:57;;;;;;;;;;;;;;;0.17;91.46;92827.50;5018579;28;19921;-47
2023/02/04 04:28:22;;;;;;;;;;;;;;;0.16;92.25;92830.69;5022422;28;19979;-46
2023/02/04 04:30:47;;;;;;;;;;;;;;;0.38;91.79;92822.50;5022341;28;20012;-46
2023/02/04 04:33:12;;;;;;;;;;;;;;;0.36;91.78;92825.72;5010416;28;19921;-47
2023/02/04 04:35:38;;;;;;;;;;;;;;;0.27;92.12;92819.81;5016502;28;20451;-47
2023/02/04 04:38:03;;;;;;;;;;;;;;;0.19;93.03;92825.03;5013313;28;19976;-48
2023/02/04 04:40:28;;;;;;;;;;;;;;;0.13;92.99;92826.28;5012292;28;19962;-47
2023/02/04 04:42:54;;;;;;;;;;;;;;;0.09;93.30;92829.22;5020400;28;19924;-47
2023/02/04 04:45:19;;;;;;;;;;;;;;;0.20;93.06;92820.31;5024804;28;20012;-47
2023/02/04 04:47:44;;;;;;;;;;;;;;;0.35;93.31;92826.19;5025524;28;19921;-47
2023/02/04 04:50:10;;;;;;;;;;;;;;;0.47;93.43;92831.13;5025042;28;19925;-46
2023/02/04 04:52:35;;;;;;;;;;;;;;;0.49;92.23;92830.63;5019308;28;20019;-47
2023/02/04 04:55:00;;;;;;;;;;;;;;;0.43;91.98;92829.91;5019226;28;19948;-46
2023/02/04 04:57:25;;;;;;;;;;;;;;;0.35;92.76;92834.34;5019557;28;20428;-47
2023/02/04 04:59:51;;;;;;;;;;;;;;;0.47;92.81;92852.84;5023634;28;19914;-47
2023/02/04 05:02:16;;;;;;;;;;;;;;;0.47;92.17;92849.38;5022550;28;20020;-47
2023/02/04 05:04:41;;;;;;;;;;;;;;;0.59;91.98;92845.38;5019925;28;19936;-46
2023/02/04 05:07:06;;;;;;;;;;;;;;;0.45;91.30;92847.19;5024836;28;19925;-46
2023/02/04 05:09:32;;;;;;;;;;;;;;;0.34;92.03;92849.16;5016298;28;20380;-46
2023/02/04 05:11:57;;;;;;;;;;;;;;;0.38;92.08;92852.38;5022859;28;19918;-46
2023/02/04 05:14:22;;;;;;;;;;;;;;;0.49;91.38;92844.19;5020856;28;20836;-47
2023/02/04 05:16:48;;;;;;;;;;;;;;;0.42;90.88;92847.41;5023988;28;19963;-46
2023/02/04 05:19:13;;;;;;;;;;;;;;;0.40;91.34;92861.50;5024086;28;20012;-46
2023/02/04 05:21:38;;;;;;;;;;;;;;;0.44;90.99;92855.81;5019299;28;19917;-46
2023/02/04 05:24:05;;;;;;;;;;;;;;;0.40;90.98;92856.06;5022610;28;20438;-46
2023/02/04 05:26:30;;;;;;;;;;;;;;;0.40;90.32;92850.63;5024576;28;19931;-47
2023/02/04 05:28:56;;;;;;;;;;;;;;;0.42;90.71;92859.03;5028907;28;19999;-46
2023/02/04 05:31:21;;;;;;;;;;;;;;;0.39;90.37;92838.28;5023392;28;20369;-46
2023/02/04 05:33:46;;;;;;;;;;;;;;;0.53;89.48;92841.94;5020770;28;19990;-47
2023/02/04 05:36:11;;;;;;;;;;;;;;;0.44;89.85;92842.97;5026689;28;19920;-46
2023/02/04 05:38:37;;;;;;;;;;;;;;;0.36;91.00;92852.88;5025883;28;20367;-48
2023/02/04 05:41:02;;;;;;;;;;;;;;;0.29;91.09;92860.78;5022172;28;19918;-46
2023/02/04 05:43:27;;;;;;;;;;;;;;;0.40;91.10;92863.47;5019508;28;20555;-47
2023/02/04 05:45:53;;;;;;;;;;;;;;;0.39;91.07;92870.16;5022323;28;20020;-47
2023/02/04 05:48:18;;;;;;;;;;;;;;;0.45;90.89;92876.31;5023952;28;19971;-47
2023/02/04 05:50:43;;;;;;;;;;;;;;;0.41;92.16;92878.53;5023311;28;20416;-46
2023/02/04 05:53:08;;;;;;;;;;;;;;;0.44;92.41;92875.56;5029650;28;19920;-46
2023/02/04 05:55:34;;;;;;;;;;;;;;;0.37;92.13;92878.06;5022300;28;19917;-47
2023/02/04 05:57:59;;;;;;;;;;;;;;;0.39;92.29;92887.16;5026446;28;20014;-47
2023/02/04 06:00:24;;;;;;;;;;;;;;;0.40;92.13;92882.47;5022119;28;19929;-46
2023/02/04 06:02:50;;;;;;;;;;;;;;;0.47;91.63;92880.00;5018875;28;19913;-46
2023/02/04 06:05:15;;;;;;;;;;;;;;;0.27;92.48;92885.72;5013030;28;19918;-47
2023/02/04 06:07:40;;;;;;;;;;;;;;;0.25;93.30;92882.75;5021633;28;19921;-47
2023/02/04 06:10:05;;;;;;;;;;;;;;;0.21;93.89;92895.84;5018932;28;20592;-49
2023/02/04 06:12:31;;;;;;;;;;;;;;;0.24;94.49;92880.53;5019414;28;19917;-46
2023/02/04 06:14:56;;;;;;;;;;;;;;;0.28;95.78;92878.31;5023172;28;19920;-46
2023/02/04 06:17:21;;;;;;;;;;;;;;;0.45;95.06;92877.03;5027322;28;19917;-46
2023/02/04 06:19:46;;;;;;;;;;;;;;;0.43;95.46;92876.06;5023596;28;19917;-47
2023/02/04 06:22:12;;;;;;;;;;;;;;;0.53;96.01;92860.97;5025758;28;20127;-46
2023/02/04 06:24:37;;;;;;;;;;;;;;;0.53;95.25;92850.84;5021341;28;20003;-47
2023/02/04 06:27:02;;;;;;;;;;;;;;;0.65;94.90;92865.13;5023087;28;20332;-46
2023/02/04 06:29:28;;;;;;;;;;;;;;;0.69;94.21;92862.91;5010809;28;20020;-46
2023/02/04 06:31:53;;;;;;;;;;;;;;;0.77;93.78;92853.72;5016046;28;19965;-46
2023/02/04 06:34:18;;;;;;;;;;;;;;;0.73;92.12;92860.66;5024854;28;19918;-47
2023/02/04 06:36:43;;;;;;;;;;;;;;;0.88;92.44;92861.09;5024388;28;19960;-46
2023/02/04 06:39:09;;;;;;;;;;;;;;;0.66;92.71;92872.78;5022869;28;19921;-46
2023/02/04 06:41:34;;;;;;;;;;;;;;;0.74;93.30;92873.00;5025153;28;19925;-48
2023/02/04 06:43:59;;;;;;;;;;;;;;;0.73;93.28;92874.25;5019532;28;19932;-47
2023/02/04 06:46:24;;;;;;;;;;;;;;;1.03;91.65;92877.09;5014137;28;19975;-47
2023/02/04 06:48:50;;;;;;;;;;;;;;;1.20;90.10;92875.75;5014985;28;20020;-47
2023/02/04 06:51:15;;;;;;;;;;;;;;;1.13;90.49;92881.72;5018491;28;19924;-47
2023/02/04 06:53:42;;;;;;;;;;;;;;;1.29;90.51;92872.00;5017020;28;20005;-47
2023/02/04 06:56:08;;;;;;;;;;;;;;;1.55;88.32;92866.91;5020120;28;20063;-46
2023/02/04 06:58:33;;;;;;;;;;;;;;;1.62;88.00;92877.25;5019330;28;19956;-46
2023/02/04 07:00:58;;;;;;;;;;;;;;;1.62;87.61;92868.34;5021393;28;20376;-47
2023/02/04 07:03:24;;;;;;;;;;;;;;;1.80;86.94;92875.91;5017636;28;19921;-47
2023/02/04 07:05:50;;;;;;;;;;;;;;;1.83;85.96;92875.63;5020457;28;19925;-47
2023/02/04 07:08:15;;;;;;;;;;;;;;;1.88;85.73;92877.56;5017055;28;20372;-49
2023/02/04 07:10:40;;;;;;;;;;;;;;;1.90;85.66;92866.91;5024303;28;20316;-48
2023/02/04 07:13:05;;;;;;;;;;;;;;;1.94;85.48;92872.06;5024229;28;19921;-48
2023/02/04 07:15:31;;;;;;;;;;;;;;;1.98;84.54;92867.06;5018196;28;20325;-48
2023/02/04 07:17:56;;;;;;;;;;;;;;;1.93;85.24;92876.03;5020507;28;19927;-47
2023/02/04 07:20:21;;;;;;;;;;;;;;;1.98;84.48;92867.06;5023220;28;19917;-47
2023/02/04 07:22:47;;;;;;;;;;;;;;;2.18;83.15;92861.22;5016575;28;19924;-47
2023/02/04 07:25:14;;;;;;;;;;;;;;;2.30;82.44;92849.72;5017184;28;19921;-47
2023/02/04 07:27:40;;;;;;;;;;;;;;;2.16;83.28;92855.53;5023014;28;19995;-46
2023/02/04 07:30:05;;;;;;;;;;;;;;;2.07;82.82;92856.63;5020012;28;20066;-46
2023/02/04 07:32:31;;;;;;;;;;;;;;;1.82;83.89;92848.91;5020497;28;19917;-47
2023/02/04 07:34:57;;;;;;;;;;;;;;;1.99;84.42;92852.94;5020044;28;19970;-47
2023/02/04 07:37:22;;;;;;;;;;;;;;;2.12;82.93;92844.91;5021071;28;19923;-48
2023/02/04 07:39:47;;;;;;;;;;;;;;;2.06;82.66;92846.22;5016762;28;19928;-48
2023/02/04 07:42:13;;;;;;;;;;;;;;;2.11;82.81;92851.63;5018362;28;20397;-48
2023/02/04 07:44:38;;;;;;;;;;;;;;;2.37;81.70;92851.13;5012443;28;19925;-49
2023/02/04 07:47:03;;;;;;;;;;;;;;;2.35;80.18;92844.72;5010804;28;19925;-48
2023/02/04 07:49:29;;;;;;;;;;;;;;;2.33;81.22;92834.34;5017456;28;19967;-47
2023/02/04 07:51:54;;;;;;;;;;;;;;;2.50;79.79;92840.34;5020520;28;19921;-47
2023/02/04 07:54:19;;;;;;;;;;;;;;;2.36;80.47;92838.03;5020616;28;19987;-48
2023/02/04 07:56:45;;;;;;;;;;;;;;;2.44;80.67;92826.06;5020898;28;20459;-49
2023/02/04 07:59:11;;;;;;;;;;;;;;;2.50;80.23;92821.28;5021018;28;19947;-47
2023/02/04 08:01:36;;;;;;;;;;;;;;;3.15;77.66;92823.72;5018204;28;19999;-48
2023/02/04 08:04:01;;;;;;;;;;;;;;;4.09;74.29;92819.59;5016206;28;20294;-48
2023/02/04 08:06:27;;;;;;;;;;;;;;;4.85;70.15;92826.91;5013519;28;19932;-47
2023/02/04 08:08:52;;;;;;;;;;;;;;;5.49;68.02;92821.09;5024944;28;20502;-47
2023/02/04 08:11:17;;;;;;;;;;;;;;;5.88;64.74;92824.47;5013050;28;19917;-47
2023/02/04 08:13:42;;;;;;;;;;;;;;;6.47;64.48;92814.56;5013159;28;19925;-48
2023/02/04 08:16:08;;;;;;;;;;;;;;;7.80;60.44;92819.06;5012777;28;19917;-48
2023/02/04 08:18:33;;;;;;;;;;;;;;;7.97;57.03;92821.31;5015928;28;20043;-48
2023/02/04 08:21:00;;;;;;;;;;;;;;;8.36;56.40;92815.31;5013907;28;19917;-49
2023/02/04 08:23:25;;;;;;;;;;;;;;;9.86;52.55;92799.72;5014771;28;19916;-49
2023/02/04 08:25:50;;;;;;;;;;;;;;;10.23;51.29;92809.81;5021054;28;19987;-48
2023/02/04 08:28:16;;;;;;;;;;;;;;;11.48;47.93;92811.81;5018240;28;19925;-49
2023/02/04 08:30:41;;;;;;;;;;;;;;;11.05;47.94;92813.19;5012551;28;20028;-50
2023/02/04 08:33:06;;;;;;;;;;;;;;;9.65;50.41;92807.53;5015890;28;20008;-48
2023/02/04 08:35:32;;;;;;;;;;;;;;;9.66;50.04;92801.47;5011950;28;19925;-49
2023/02/04 08:37:57;;;;;;;;;;;;;;;10.47;49.05;92803.56;5018392;28;20367;-49
2023/02/04 08:40:22;;;;;;;;;;;;;;;12.33;44.95;92805.41;5019903;28;19933;-51
2023/02/04 08:42:47;;;;;;;;;;;;;;;11.40;46.21;92809.16;5016259;28;19932;-52
2023/02/04 08:45:13;;;;;;;;;;;;;;;10.37;48.69;92810.28;5016965;28;19928;-49
2023/02/04 08:47:38;;;;;;;;;;;;;;;9.65;50.25;92808.28;5017616;28;19922;-48
2023/02/04 08:50:03;;;;;;;;;;;;;;;9.08;51.38;92808.09;5017975;28;19917;-50
2023/02/04 08:52:29;;;;;;;;;;;;;;;8.41;53.35;92806.16;5021096;28;20408;-50
2023/02/04 08:54:54;;;;;;;;;;;;;;;7.41;56.67;92801.00;5019264;28;20023;-48
2023/02/04 08:57:19;;;;;;;;;;;;;;;6.87;58.51;92799.28;5019216;28;19921;-48
2023/02/04 08:59:45;;;;;;;;;;;;;;;6.28;60.99;92810.59;5015467;28;20403;-49
2023/02/04 09:02:10;;;;;;;;;;;;;;;6.59;60.94;92807.53;5018209;28;19924;-52
2023/02/04 09:04:35;;;;;;;;;;;;;;;6.14;62.89;92812.66;5018505;28;20008;-48
2023/02/04 09:07:01;;;;;;;;;;;;;;;6.05;62.59;92805.63;5020322;28;20293;-48
2023/02/04 09:09:26;;;;;;;;;;;;;;;5.68;64.40;92810.72;5021170;28;19921;-45
2023/02/04 09:11:51;;;;;;;;;;;;;;;5.60;65.10;92809.91;5012793;28;19921;-49
2023/02/04 09:14:16;;;;;;;;;;;;;;;5.79;64.84;92808.47;5022040;28;19928;-50
2023/02/04 09:16:42;;;;;;;;;;;;;;;5.87;64.55;92803.81;5019734;28;19925;-48
2023/02/04 09:19:09;;;;;;;;;;;;;;;5.58;66.12;92801.50;5021233;28;19924;-48
2023/02/04 09:21:35;;;;;;;;;;;;;;;5.97;64.47;92796.63;5015014;28;19925;-48
2023/02/04 09:24:00;;;;;;;;;;;;;;;6.31;63.32;92801.28;5014069;28;19924;-46
2023/02/04 09:26:25;;;;;;;;;;;;;;;6.05;63.93;92802.16;5016168;28;20449;-48
2023/02/04 09:28:50;;;;;;;;;;;;;;;5.48;65.69;92809.41;5020718;28;19917;-45
2023/02/04 09:31:16;;;;;;;;;;;;;;;5.32;66.56;92797.59;5015787;28;20327;-48
2023/02/04 09:33:41;;;;;;;;;;;;;;;5.93;65.00;92792.75;5016314;28;19922;-46
2023/02/04 09:36:07;;;;;;;;;;;;;;;5.90;64.78;92793.81;5022712;28;19913;-50
2023/02/04 09:38:32;;;;;;;;;;;;;;;5.73;65.53;92794.19;5005474;28;19924;-48
2023/02/04 09:41:01;;;;;;;;;;;;;;;5.58;66.61;92794.03;5010666;28;19949;-46
2023/02/04 09:43:28;;;;;;;;;;;;;;;5.74;66.18;92797.66;4999001;28;19917;-47
2023/02/04 09:45:53;;;;;;;;;;;;;;;5.15;67.94;92796.47;5020740;28;19928;-48
2023/02/04 09:48:19;;;;;;;;;;;;;;;5.10;68.58;92783.63;5016263;28;19925;-48
2023/02/04 09:50:44;;;;;;;;;;;;;;;5.37;67.40;92787.78;5010673;28;20336;-47
2023/02/04 09:53:11;;;;;;;;;;;;;;;5.32;68.08;92794.09;5015782;28;19924;-47
2023/02/04 09:55:37;;;;;;;;;;;;;;;5.16;68.61;92792.44;5023031;28;19921;-47
2023/02/04 09:58:04;;;;;;;;;;;;;;;5.16;68.84;92784.97;5018226;28;19924;-48
2023/02/04 10:00:30;;;;;;;;;;;;;;;5.39;67.96;92788.69;5009852;28;19922;-48
2023/02/04 10:02:59;;;;;;;;;;;;;;;4.95;70.60;92786.94;5015130;28;20028;-47
2023/02/04 10:05:27;;;;;;;;;;;;;;;4.59;71.07;92794.81;5020305;28;19921;-47
2023/02/04 10:07:53;;;;;;;;;;;;;;;4.82;70.85;92786.19;5017337;28;19957;-47
2023/02/04 10:10:41;;;;;;;;;;;;;;;4.36;72.09;92782.84;5016226;28;20802;-48
2023/02/04 10:13:07;;;;;;;;;;;;;;;4.33;72.18;92775.69;5016572;28;19921;-48
2023/02/04 10:15:33;;;;;;;;;;;;;;;4.36;71.95;92765.69;5011442;28;19916;-49
2023/02/04 10:18:01;;;;;;;;;;;;;;;4.44;71.37;92767.28;5011782;28;20282;-47
2023/02/04 10:20:26;;;;;;;;;;;;;;;4.21;72.39;92777.16;5018158;28;19945;-46
2023/02/04 10:22:52;;;;;;;;;;;;;;;4.10;73.18;92788.28;5013753;28;19949;-48
2023/02/04 10:25:18;;;;;;;;;;;;;;;4.24;73.22;92776.13;5014863;28;19972;-48
2023/02/04 10:27:50;;;;;;;;;;;;;;;4.03;74.38;92775.22;5017935;28;20102;-48
2023/02/04 10:30:19;;;;;;;;;;;;;;;3.95;74.90;92766.19;5019276;28;19913;-48
2023/02/04 10:32:45;;;;;;;;;;;;;;;3.73;76.37;92772.75;5014627;28;19924;-47
2023/02/04 10:35:12;;;;;;;;;;;;;;;3.75;77.03;92777.69;5006216;28;19913;-47
2023/02/04 10:37:37;;;;;;;;;;;;;;;3.58;77.65;92782.66;5024950;28;20014;-48
2023/02/04 10:40:02;;;;;;;;;;;;;;;3.52;78.25;92776.56;5010720;28;20436;-48
2023/02/04 10:42:28;;;;;;;;;;;;;;;3.63;77.67;92777.13;5024904;28;19917;-47
2023/02/04 10:44:54;;;;;;;;;;;;;;;3.48;78.30;92765.22;5014515;28;20440;-48
2023/02/04 10:47:23;;;;;;;;;;;;;;;3.22;79.50;92767.84;5014958;28;20160;-47
2023/02/04 10:49:55;;;;;;;;;;;;;;;3.39;79.88;92771.06;5022449;28;19917;-47
2023/02/04 10:52:21;;;;;;;;;;;;;;;3.19;81.28;92763.41;5021285;28;19924;-46
2023/02/04 10:54:46;;;;;;;;;;;;;;;3.10;81.91;92769.25;5022229;28;20423;-47
2023/02/04 10:57:12;;;;;;;;;;;;;;;3.43;80.65;92760.56;5017694;28;19963;-46
2023/02/04 10:59:37;;;;;;;;;;;;;;;3.50;79.76;92757.25;5022834;28;19921;-47
2023/02/04 11:02:10;;;;;;;;;;;;;;;3.62;80.72;92753.81;4999016;28;20010;-47
2023/02/04 11:04:36;;;;;;;;;;;;;;;3.67;80.56;92750.28;5003343;28;20056;-47
2023/02/04 11:07:01;;;;;;;;;;;;;;;3.78;79.50;92746.63;5008992;28;19994;-47
2023/02/04 11:09:26;;;;;;;;;;;;;;;3.70;79.70;92746.47;5007869;28;20458;-48
2023/02/04 11:11:51;;;;;;;;;;;;;;;3.92;78.56;92736.47;5006264;28;19917;-47
2023/02/04 11:14:27;;;;;;;;;;;;;;;3.88;78.78;92738.78;5015710;28;20020;-44
2023/02/04 11:16:53;;;;;;;;;;;;;;;3.59;80.33;92741.22;5016823;28;19925;-47
2023/02/04 11:19:30;;;;;;;;;;;;;;;3.70;79.96;92730.09;5013141;28;19928;-47
2023/02/04 11:22:02;;;;;;;;;;;;;;;3.77;79.00;92736.94;5019419;28;19922;-47
2023/02/04 11:24:31;;;;;;;;;;;;;;;3.76;79.85;92730.03;5018168;28;19921;-47
2023/02/04 11:27:17;;;;;;;;;;;;;;;3.54;80.67;92722.19;5014473;28;19932;-50
2023/02/04 11:29:42;;;;;;;;;;;;;;;3.38;81.74;92729.38;5001639;28;20435;-51
2023/02/04 11:32:27;;;;;;;;;;;;;;;3.45;82.25;92725.31;5017111;28;19921;-52
2023/02/04 11:34:56;;;;;;;;;;;;;;;3.37;82.00;92713.53;5017979;28;20221;-48
2023/02/04 11:37:37;;;;;;;;;;;;;;;3.47;81.83;92712.63;5007880;28;20067;-48
2023/02/04 11:40:22;;;;;;;;;;;;;;;3.50;81.20;92719.03;5023730;28;20112;-49
2023/02/04 11:42:48;;;;;;;;;;;;;;;3.39;82.71;92711.78;5023707;28;19917;-50
2023/02/04 11:45:14;;;;;;;;;;;;;;;3.42;82.29;92715.47;5014060;28;20019;-49
2023/02/04 11:47:40;;;;;;;;;;;;;;;3.28;83.75;92703.03;5021707;28;19981;-49
2023/02/04 11:50:23;;;;;;;;;;;;;;;3.47;82.13;92704.44;5000906;28;20448;-48
2023/02/04 11:52:49;;;;;;;;;;;;;;;3.42;83.36;92699.09;5019509;28;19917;-50
2023/02/04 11:55:14;;;;;;;;;;;;;;;3.51;82.11;92709.63;5014812;28;20000;-49
2023/02/04 11:57:40;;;;;;;;;;;;;;;3.31;83.22;92705.47;5018142;28;20428;-51
2023/02/04 12:00:12;;;;;;;;;;;;;;;3.31;84.35;92702.72;5016692;28;20004;-50
2023/02/04 12:02:42;;;;;;;;;;;;;;;3.13;84.94;92705.47;5013605;28;19921;-49
2023/02/04 12:05:08;;;;;;;;;;;;;;;3.04;85.27;92701.88;5006652;28;19917;-50
2023/02/04 12:07:34;;;;;;;;;;;;;;;2.72;86.65;92692.19;5000434;28;19949;-49
2023/02/04 12:10:09;;;;;;;;;;;;;;;2.80;86.87;92691.09;5023240;28;19972;-48
2023/02/04 12:12:39;;;;;;;;;;;;;;;3.05;86.15;92692.44;5018437;28;19925;-48
2023/02/04 12:15:09;;;;;;;;;;;;;;;2.95;86.15;92690.63;5022930;28;19921;-50
2023/02/04 12:17:34;;;;;;;;;;;;;;;2.86;87.54;92689.00;5000970;28;20425;-51
2023/02/04 12:19:59;;;;;;;;;;;;;;;2.90;87.91;92689.44;5002399;28;19921;-49
2023/02/04 12:22:25;;;;;;;;;;;;;;;2.87;87.51;92695.94;5018409;28;19976;-50
2023/02/04 12:24:51;;;;;;;;;;;;;;;2.67;88.15;92682.09;5012924;28;19917;-49
2023/02/04 12:27:16;;;;;;;;;;;;;;;2.65;89.11;92685.34;5013267;28;20376;-48
2023/02/04 12:29:41;;;;;;;;;;;;;;;2.61;89.64;92679.47;5021372;28;20012;-49
2023/02/04 12:32:07;;;;;;;;;;;;;;;2.52;89.81;92677.09;5022411;28;19931;-48
2023/02/04 12:34:32;;;;;;;;;;;;;;;2.62;89.38;92680.91;5024061;28;20394;-48
2023/02/04 12:36:57;;;;;;;;;;;;;;;2.75;88.81;92672.09;5026637;28;20007;-49
2023/02/04 12:39:23;;;;;;;;;;;;;;;2.76;89.08;92682.47;5016881;28;20372;-49
2023/02/04 12:41:48;;;;;;;;;;;;;;;2.56;89.50;92682.25;5015223;28;19952;-49
2023/02/04 12:44:14;;;;;;;;;;;;;;;2.54;90.40;92671.88;5023839;28;20364;-50
2023/02/04 12:46:39;;;;;;;;;;;;;;;2.50;90.68;92687.03;5018750;28;19932;-49
2023/02/04 12:49:05;;;;;;;;;;;;;;;2.52;90.33;92681.81;5022152;28;20317;-49
2023/02/04 12:51:31;;;;;;;;;;;;;;;2.65;90.61;92684.59;5022698;28;19983;-50